sensor_id;sensor_type;location;lat;lon;timestamp;pressure;altitude;pressure_sealevel;temperature
19568;BMP280;9930;49.240;8.548;2024-02-21T00:02:20;101528.81;;;12.44
19568;BMP280;9930;49.240;8.548;2024-02-21T00:04:48;101527.28;;;12.47
19568;BMP280;9930;49.240;8.548;2024-02-21T00:07:13;101511.56;;;12.40
19568;BMP280;9930;49.240;8.548;2024-02-21T00:09:39;101519.59;;;12.47
19568;BMP280;9930;49.240;8.548;2024-02-21T00:12:05;101511.09;;;12.48
19568;BMP280;9930;49.240;8.548;2024-02-21T00:14:31;101514.53;;;12.49
19568;BMP280;9930;49.240;8.548;2024-02-21T00:16:57;101502.56;;;12.48
19568;BMP280;9930;49.240;8.548;2024-02-21T00:19:23;101503.50;;;12.50
19568;BMP280;9930;49.240;8.548;2024-02-21T00:21:48;101491.31;;;12.44
19568;BMP280;9930;49.240;8.548;2024-02-21T00:24:17;101489.75;;;12.48
19568;BMP280;9930;49.240;8.548;2024-02-21T00:26:43;101501.09;;;12.53
19568;BMP280;9930;49.240;8.548;2024-02-21T00:29:09;101483.75;;;12.47
19568;BMP280;9930;49.240;8.548;2024-02-21T00:31:34;101481.28;;;12.49
19568;BMP280;9930;49.240;8.548;2024-02-21T00:34:00;101497.13;;;12.59
19568;BMP280;9930;49.240;8.548;2024-02-21T00:36:26;101489.53;;;12.61
19568;BMP280;9930;49.240;8.548;2024-02-21T00:38:51;101488.72;;;12.62
19568;BMP280;9930;49.240;8.548;2024-02-21T00:41:18;101463.78;;;12.58
19568;BMP280;9930;49.240;8.548;2024-02-21T00:43:43;101478.69;;;12.67
19568;BMP280;9930;49.240;8.548;2024-02-21T00:46:10;101472.78;;;12.68
19568;BMP280;9930;49.240;8.548;2024-02-21T00:48:35;101467.44;;;12.63
19568;BMP280;9930;49.240;8.548;2024-02-21T00:51:01;101464.00;;;12.62
19568;BMP280;9930;49.240;8.548;2024-02-21T00:53:27;101464.22;;;12.67
19568;BMP280;9930;49.240;8.548;2024-02-21T00:55:55;101462.75;;;12.72
19568;BMP280;9930;49.240;8.548;2024-02-21T00:58:22;101446.22;;;12.65
19568;BMP280;9930;49.240;8.548;2024-02-21T01:00:49;101439.63;;;12.71
19568;BMP280;9930;49.240;8.548;2024-02-21T01:03:20;101437.22;;;12.74
19568;BMP280;9930;49.240;8.548;2024-02-21T01:05:48;101423.25;;;12.67
19568;BMP280;9930;49.240;8.548;2024-02-21T01:08:13;101433.78;;;12.73
19568;BMP280;9930;49.240;8.548;2024-02-21T01:10:39;101416.72;;;12.74
19568;BMP280;9930;49.240;8.548;2024-02-21T01:13:05;101416.59;;;12.71
19568;BMP280;9930;49.240;8.548;2024-02-21T01:15:31;101422.66;;;12.73
19568;BMP280;9930;49.240;8.548;2024-02-21T01:17:57;101403.00;;;12.72
19568;BMP280;9930;49.240;8.548;2024-02-21T01:20:22;101388.16;;;12.64
19568;BMP280;9930;49.240;8.548;2024-02-21T01:22:48;101395.16;;;12.69
19568;BMP280;9930;49.240;8.548;2024-02-21T01:25:17;101392.28;;;12.61
19568;BMP280;9930;49.240;8.548;2024-02-21T01:27:44;101403.53;;;12.64
19568;BMP280;9930;49.240;8.548;2024-02-21T01:30:10;101401.75;;;12.63
19568;BMP280;9930;49.240;8.548;2024-02-21T01:32:38;101397.47;;;12.62
19568;BMP280;9930;49.240;8.548;2024-02-21T01:35:04;101387.75;;;12.55
19568;BMP280;9930;49.240;8.548;2024-02-21T01:37:30;101402.44;;;12.59
19568;BMP280;9930;49.240;8.548;2024-02-21T01:39:56;101395.28;;;12.52
19568;BMP280;9930;49.240;8.548;2024-02-21T01:42:21;101409.03;;;12.54
19568;BMP280;9930;49.240;8.548;2024-02-21T01:44:48;101408.16;;;12.54
19568;BMP280;9930;49.240;8.548;2024-02-21T01:47:16;101404.66;;;12.52
19568;BMP280;9930;49.240;8.548;2024-02-21T01:49:43;101408.81;;;12.50
19568;BMP280;9930;49.240;8.548;2024-02-21T01:52:11;101404.50;;;12.49
19568;BMP280;9930;49.240;8.548;2024-02-21T01:54:39;101402.75;;;12.48
19568;BMP280;9930;49.240;8.548;2024-02-21T01:57:05;101396.69;;;12.46
19568;BMP280;9930;49.240;8.548;2024-02-21T01:59:31;101404.22;;;12.43
19568;BMP280;9930;49.240;8.548;2024-02-21T02:01:58;101393.56;;;12.33
19568;BMP280;9930;49.240;8.548;2024-02-21T02:04:24;101392.84;;;12.36
19568;BMP280;9930;49.240;8.548;2024-02-21T02:06:51;101387.44;;;12.30
19568;BMP280;9930;49.240;8.548;2024-02-21T02:09:18;101394.53;;;12.36
19568;BMP280;9930;49.240;8.548;2024-02-21T02:11:44;101377.13;;;12.28
19568;BMP280;9930;49.240;8.548;2024-02-21T02:14:12;101369.31;;;12.25
19568;BMP280;9930;49.240;8.548;2024-02-21T02:16:38;101383.00;;;12.26
19568;BMP280;9930;49.240;8.548;2024-02-21T02:19:03;101384.06;;;12.31
19568;BMP280;9930;49.240;8.548;2024-02-21T02:21:32;101384.94;;;12.31
19568;BMP280;9930;49.240;8.548;2024-02-21T02:24:00;101374.38;;;12.24
19568;BMP280;9930;49.240;8.548;2024-02-21T02:26:25;101361.44;;;12.21
19568;BMP280;9930;49.240;8.548;2024-02-21T02:28:52;101385.75;;;12.30
19568;BMP280;9930;49.240;8.548;2024-02-21T02:31:18;101368.66;;;12.29
19568;BMP280;9930;49.240;8.548;2024-02-21T02:33:47;101353.31;;;12.29
19568;BMP280;9930;49.240;8.548;2024-02-21T02:36:14;101348.72;;;12.22
19568;BMP280;9930;49.240;8.548;2024-02-21T02:38:40;101359.97;;;12.26
19568;BMP280;9930;49.240;8.548;2024-02-21T02:41:05;101339.16;;;12.18
19568;BMP280;9930;49.240;8.548;2024-02-21T02:43:31;101322.66;;;12.12
19568;BMP280;9930;49.240;8.548;2024-02-21T02:45:57;101343.66;;;12.24
19568;BMP280;9930;49.240;8.548;2024-02-21T02:48:23;101326.56;;;12.23
19568;BMP280;9930;49.240;8.548;2024-02-21T02:50:48;101291.97;;;12.12
19568;BMP280;9930;49.240;8.548;2024-02-21T02:53:18;101306.56;;;12.14
19568;BMP280;9930;49.240;8.548;2024-02-21T02:55:43;101300.56;;;12.14
19568;BMP280;9930;49.240;8.548;2024-02-21T02:58:11;101308.53;;;12.20
19568;BMP280;9930;49.240;8.548;2024-02-21T03:00:36;101310.81;;;12.14
19568;BMP280;9930;49.240;8.548;2024-02-21T03:03:02;101311.63;;;12.13
19568;BMP280;9930;49.240;8.548;2024-02-21T03:05:31;101309.94;;;12.13
19568;BMP280;9930;49.240;8.548;2024-02-21T03:07:57;101322.06;;;12.17
19568;BMP280;9930;49.240;8.548;2024-02-21T03:10:22;101304.88;;;12.15
19568;BMP280;9930;49.240;8.548;2024-02-21T03:12:48;101304.00;;;12.14
19568;BMP280;9930;49.240;8.548;2024-02-21T03:15:17;101297.16;;;12.13
19568;BMP280;9930;49.240;8.548;2024-02-21T03:17:48;101286.63;;;12.07
19568;BMP280;9930;49.240;8.548;2024-02-21T03:20:14;101294.53;;;12.12
19568;BMP280;9930;49.240;8.548;2024-02-21T03:22:43;101286.78;;;12.10
19568;BMP280;9930;49.240;8.548;2024-02-21T03:25:09;101288.38;;;12.08
19568;BMP280;9930;49.240;8.548;2024-02-21T03:27:36;101289.19;;;12.07
19568;BMP280;9930;49.240;8.548;2024-02-21T03:30:02;101286.56;;;12.06
19568;BMP280;9930;49.240;8.548;2024-02-21T03:32:29;101270.06;;;11.99
19568;BMP280;9930;49.240;8.548;2024-02-21T03:34:55;101270.88;;;11.98
19568;BMP280;9930;49.240;8.548;2024-02-21T03:37:21;101270.81;;;11.96
19568;BMP280;9930;49.240;8.548;2024-02-21T03:39:49;101268.25;;;11.96
19568;BMP280;9930;49.240;8.548;2024-02-21T03:42:18;101259.72;;;11.96
19568;BMP280;9930;49.240;8.548;2024-02-21T03:44:44;101253.72;;;11.95
19568;BMP280;9930;49.240;8.548;2024-02-21T03:47:09;101252.09;;;11.97
19568;BMP280;9930;49.240;8.548;2024-02-21T03:49:37;101244.53;;;11.81
19568;BMP280;9930;49.240;8.548;2024-02-21T03:52:03;101269.00;;;11.94
19568;BMP280;9930;49.240;8.548;2024-02-21T03:54:29;101243.88;;;11.85
19568;BMP280;9930;49.240;8.548;2024-02-21T03:56:54;101262.94;;;11.92
19568;BMP280;9930;49.240;8.548;2024-02-21T03:59:21;101260.31;;;11.90
19568;BMP280;9930;49.240;8.548;2024-02-21T04:01:52;101268.78;;;11.89
19568;BMP280;9930;49.240;8.548;2024-02-21T04:04:18;101264.41;;;11.87
19568;BMP280;9930;49.240;8.548;2024-02-21T04:06:51;101258.00;;;11.77
19568;BMP280;9930;49.240;8.548;2024-02-21T04:09:18;101280.34;;;11.81
19568;BMP280;9930;49.240;8.548;2024-02-21T04:11:50;101278.56;;;11.80
19568;BMP280;9930;49.240;8.548;2024-02-21T04:14:18;101288.81;;;11.80
19568;BMP280;9930;49.240;8.548;2024-02-21T04:16:44;101273.06;;;11.73
19568;BMP280;9930;49.240;8.548;2024-02-21T04:19:09;101281.69;;;11.75
19568;BMP280;9930;49.240;8.548;2024-02-21T04:21:35;101281.63;;;11.73
19568;BMP280;9930;49.240;8.548;2024-02-21T04:24:01;101271.84;;;11.64
19568;BMP280;9930;49.240;8.548;2024-02-21T04:26:28;101256.97;;;11.56
19568;BMP280;9930;49.240;8.548;2024-02-21T04:28:54;101269.38;;;11.66
19568;BMP280;9930;49.240;8.548;2024-02-21T04:31:20;101270.16;;;11.65
19568;BMP280;9930;49.240;8.548;2024-02-21T04:33:48;101270.91;;;11.62
19568;BMP280;9930;49.240;8.548;2024-02-21T04:36:14;101256.81;;;11.53
19568;BMP280;9930;49.240;8.548;2024-02-21T04:38:41;101265.50;;;11.56
19568;BMP280;9930;49.240;8.548;2024-02-21T04:41:07;101265.44;;;11.55
19568;BMP280;9930;49.240;8.548;2024-02-21T04:43:33;101244.56;;;11.46
19568;BMP280;9930;49.240;8.548;2024-02-21T04:45:59;101239.44;;;11.46
19568;BMP280;9930;49.240;8.548;2024-02-21T04:48:25;101236.59;;;11.40
19568;BMP280;9930;49.240;8.548;2024-02-21T04:50:51;101230.69;;;11.41
19568;BMP280;9930;49.240;8.548;2024-02-21T04:53:18;101242.06;;;11.47
19568;BMP280;9930;49.240;8.548;2024-02-21T04:55:44;101236.00;;;11.45
19568;BMP280;9930;49.240;8.548;2024-02-21T04:58:10;101209.97;;;11.34
19568;BMP280;9930;49.240;8.548;2024-02-21T05:00:35;101222.16;;;11.40
19568;BMP280;9930;49.240;8.548;2024-02-21T05:03:01;101191.59;;;11.24
19568;BMP280;9930;49.240;8.548;2024-02-21T05:05:27;101201.22;;;11.29
19568;BMP280;9930;49.240;8.548;2024-02-21T05:07:53;101183.13;;;11.25
19568;BMP280;9930;49.240;8.548;2024-02-21T05:10:18;101197.94;;;11.32
19568;BMP280;9930;49.240;8.548;2024-02-21T05:12:47;101200.41;;;11.30
19568;BMP280;9930;49.240;8.548;2024-02-21T05:15:14;101201.00;;;11.25
19568;BMP280;9930;49.240;8.548;2024-02-21T05:17:39;101191.22;;;11.16
19568;BMP280;9930;49.240;8.548;2024-02-21T05:20:06;101192.81;;;11.14
19568;BMP280;9930;49.240;8.548;2024-02-21T05:22:32;101195.38;;;11.14
19568;BMP280;9930;49.240;8.548;2024-02-21T05:24:57;101193.56;;;11.12
19568;BMP280;9930;49.240;8.548;2024-02-21T05:27:23;101193.69;;;11.15
19568;BMP280;9930;49.240;8.548;2024-02-21T05:29:49;101196.97;;;11.12
19568;BMP280;9930;49.240;8.548;2024-02-21T05:32:18;101193.47;;;11.10
19568;BMP280;9930;49.240;8.548;2024-02-21T05:34:51;101195.81;;;11.06
19568;BMP280;9930;49.240;8.548;2024-02-21T05:37:18;101185.25;;;10.98
19568;BMP280;9930;49.240;8.548;2024-02-21T05:39:44;101186.63;;;10.91
19568;BMP280;9930;49.240;8.548;2024-02-21T05:42:12;101179.69;;;10.89
19568;BMP280;9930;49.240;8.548;2024-02-21T05:44:38;101189.25;;;10.93
19568;BMP280;9930;49.240;8.548;2024-02-21T05:47:04;101180.34;;;10.85
19568;BMP280;9930;49.240;8.548;2024-02-21T05:49:30;101172.53;;;10.82
19568;BMP280;9930;49.240;8.548;2024-02-21T05:51:55;101171.81;;;10.84
19568;BMP280;9930;49.240;8.548;2024-02-21T05:54:21;101162.84;;;10.75
19568;BMP280;9930;49.240;8.548;2024-02-21T05:56:48;101179.16;;;10.78
19568;BMP280;9930;49.240;8.548;2024-02-21T05:59:14;101175.66;;;10.76
19568;BMP280;9930;49.240;8.548;2024-02-21T06:01:40;101179.81;;;10.74
19568;BMP280;9930;49.240;8.548;2024-02-21T06:04:06;101177.13;;;10.71
19568;BMP280;9930;49.240;8.548;2024-02-21T06:06:31;101178.41;;;10.63
19568;BMP280;9930;49.240;8.548;2024-02-21T06:08:57;101175.72;;;10.60
19568;BMP280;9930;49.240;8.548;2024-02-21T06:11:24;101162.00;;;10.58
19568;BMP280;9930;49.240;8.548;2024-02-21T06:13:50;101161.84;;;10.55
19568;BMP280;9930;49.240;8.548;2024-02-21T06:16:22;101151.41;;;10.50
19568;BMP280;9930;49.240;8.548;2024-02-21T06:18:48;101166.00;;;10.53
19568;BMP280;9930;49.240;8.548;2024-02-21T06:21:14;101179.47;;;10.50
19568;BMP280;9930;49.240;8.548;2024-02-21T06:23:42;101169.03;;;10.46
19568;BMP280;9930;49.240;8.548;2024-02-21T06:26:08;101167.28;;;10.45
19568;BMP280;9930;49.240;8.548;2024-02-21T06:28:34;101169.78;;;10.43
19568;BMP280;9930;49.240;8.548;2024-02-21T06:30:59;101159.22;;;10.35
19568;BMP280;9930;49.240;8.548;2024-02-21T06:33:25;101163.59;;;10.38
19568;BMP280;9930;49.240;8.548;2024-02-21T06:35:51;101141.13;;;10.31
19568;BMP280;9930;49.240;8.548;2024-02-21T06:38:19;101140.19;;;10.29
19568;BMP280;9930;49.240;8.548;2024-02-21T06:40:50;101156.59;;;10.34
19568;BMP280;9930;49.240;8.548;2024-02-21T06:43:20;101139.16;;;10.25
19568;BMP280;9930;49.240;8.548;2024-02-21T06:45:48;101148.88;;;10.32
19568;BMP280;9930;49.240;8.548;2024-02-21T06:48:18;101147.91;;;10.30
19568;BMP280;9930;49.240;8.548;2024-02-21T06:50:47;101146.72;;;10.24
19568;BMP280;9930;49.240;8.548;2024-02-21T06:53:18;101153.00;;;10.30
19568;BMP280;9930;49.240;8.548;2024-02-21T06:55:44;101144.97;;;10.23
19568;BMP280;9930;49.240;8.548;2024-02-21T06:58:09;101156.44;;;10.31
19568;BMP280;9930;49.240;8.548;2024-02-21T07:00:38;101158.19;;;10.32
19568;BMP280;9930;49.240;8.548;2024-02-21T07:03:04;101147.75;;;10.27
19568;BMP280;9930;49.240;8.548;2024-02-21T07:05:29;101145.22;;;10.27
19568;BMP280;9930;49.240;8.548;2024-02-21T07:07:55;101150.47;;;10.30
19568;BMP280;9930;49.240;8.548;2024-02-21T07:10:21;101168.78;;;10.40
19568;BMP280;9930;49.240;8.548;2024-02-21T07:12:48;101165.53;;;10.44
19568;BMP280;9930;49.240;8.548;2024-02-21T07:15:14;101143.84;;;10.34
19568;BMP280;9930;49.240;8.548;2024-02-21T07:17:43;101164.19;;;10.50
19568;BMP280;9930;49.240;8.548;2024-02-21T07:20:09;101150.63;;;10.51
19568;BMP280;9930;49.240;8.548;2024-02-21T07:22:35;101141.53;;;10.56
19568;BMP280;9930;49.240;8.548;2024-02-21T07:25:00;101143.72;;;10.66
19568;BMP280;9930;49.240;8.548;2024-02-21T07:27:26;101140.53;;;10.70
19568;BMP280;9930;49.240;8.548;2024-02-21T07:29:56;101137.09;;;10.70
19568;BMP280;9930;49.240;8.548;2024-02-21T07:32:22;101143.38;;;10.77
19568;BMP280;9930;49.240;8.548;2024-02-21T07:34:48;101146.34;;;10.86
19568;BMP280;9930;49.240;8.548;2024-02-21T07:37:14;101134.34;;;10.83
19568;BMP280;9930;49.240;8.548;2024-02-21T07:39:40;101136.38;;;10.90
19568;BMP280;9930;49.240;8.548;2024-02-21T07:42:06;101145.34;;;11.00
19568;BMP280;9930;49.240;8.548;2024-02-21T07:44:32;101146.06;;;10.97
19568;BMP280;9930;49.240;8.548;2024-02-21T07:47:03;101159.50;;;11.11
19568;BMP280;9930;49.240;8.548;2024-02-21T07:49:29;101144.91;;;11.09
19568;BMP280;9930;49.240;8.548;2024-02-21T07:51:54;101136.59;;;11.13
19568;BMP280;9930;49.240;8.548;2024-02-21T07:54:20;101153.50;;;11.28
19568;BMP280;9930;49.240;8.548;2024-02-21T07:56:48;101147.78;;;11.34
19568;BMP280;9930;49.240;8.548;2024-02-21T07:59:14;101140.28;;;11.37
19568;BMP280;9930;49.240;8.548;2024-02-21T08:01:42;101121.53;;;11.36
19568;BMP280;9930;49.240;8.548;2024-02-21T08:04:08;101128.78;;;11.47
19568;BMP280;9930;49.240;8.548;2024-02-21T08:06:34;101128.34;;;11.55
19568;BMP280;9930;49.240;8.548;2024-02-21T08:08:59;101132.03;;;11.62
19568;BMP280;9930;49.240;8.548;2024-02-21T08:11:26;101114.97;;;11.61
19568;BMP280;9930;49.240;8.548;2024-02-21T08:13:51;101097.13;;;11.62
19568;BMP280;9930;49.240;8.548;2024-02-21T08:16:18;101120.25;;;11.83
19568;BMP280;9930;49.240;8.548;2024-02-21T08:18:48;101103.22;;;11.84
19568;BMP280;9930;49.240;8.548;2024-02-21T08:21:14;101113.84;;;11.93
19568;BMP280;9930;49.240;8.548;2024-02-21T08:23:39;101100.19;;;11.92
19568;BMP280;9930;49.240;8.548;2024-02-21T08:26:05;101095.13;;;11.94
19568;BMP280;9930;49.240;8.548;2024-02-21T08:28:31;101105.81;;;12.05
19568;BMP280;9930;49.240;8.548;2024-02-21T08:30:57;101103.34;;;12.06
19568;BMP280;9930;49.240;8.548;2024-02-21T08:33:22;101086.25;;;12.05
19568;BMP280;9930;49.240;8.548;2024-02-21T08:35:51;101074.41;;;12.07
19568;BMP280;9930;49.240;8.548;2024-02-21T08:38:18;101083.41;;;12.18
19568;BMP280;9930;49.240;8.548;2024-02-21T08:40:44;101077.34;;;12.16
19568;BMP280;9930;49.240;8.548;2024-02-21T08:43:10;101078.72;;;12.29
19568;BMP280;9930;49.240;8.548;2024-02-21T08:45:35;101072.66;;;12.27
19568;BMP280;9930;49.240;8.548;2024-02-21T08:48:01;101065.13;;;12.30
19568;BMP280;9930;49.240;8.548;2024-02-21T08:50:27;101073.91;;;12.37
19568;BMP280;9930;49.240;8.548;2024-02-21T08:52:53;101069.69;;;12.37
19568;BMP280;9930;49.240;8.548;2024-02-21T08:55:19;101067.19;;;12.39
19568;BMP280;9930;49.240;8.548;2024-02-21T08:57:47;101061.44;;;12.44
19568;BMP280;9930;49.240;8.548;2024-02-21T09:00:17;101066.63;;;12.46
19568;BMP280;9930;49.240;8.548;2024-02-21T09:02:47;101065.00;;;12.48
19568;BMP280;9930;49.240;8.548;2024-02-21T09:05:13;101076.47;;;12.57
19568;BMP280;9930;49.240;8.548;2024-02-21T09:07:39;101061.06;;;12.56
19568;BMP280;9930;49.240;8.548;2024-02-21T09:10:05;101070.78;;;12.64
19568;BMP280;9930;49.240;8.548;2024-02-21T09:12:31;101070.28;;;12.73
19568;BMP280;9930;49.240;8.548;2024-02-21T09:14:58;101047.06;;;12.69
19568;BMP280;9930;49.240;8.548;2024-02-21T09:17:23;101052.53;;;12.78
19568;BMP280;9930;49.240;8.548;2024-02-21T09:19:50;101050.28;;;12.85
19568;BMP280;9930;49.240;8.548;2024-02-21T09:22:21;101048.13;;;12.96
19568;BMP280;9930;49.240;8.548;2024-02-21T09:24:48;101037.13;;;12.98
19568;BMP280;9930;49.240;8.548;2024-02-21T09:27:14;101022.03;;;13.06
19568;BMP280;9930;49.240;8.548;2024-02-21T09:29:40;101033.59;;;13.17
19568;BMP280;9930;49.240;8.548;2024-02-21T09:32:06;101027.81;;;13.23
19568;BMP280;9930;49.240;8.548;2024-02-21T09:34:32;101011.69;;;13.25
19568;BMP280;9930;49.240;8.548;2024-02-21T09:36:57;101025.94;;;13.41
19568;BMP280;9930;49.240;8.548;2024-02-21T09:39:23;101022.94;;;13.53
19568;BMP280;9930;49.240;8.548;2024-02-21T09:41:58;101025.00;;;13.63
19568;BMP280;9930;49.240;8.548;2024-02-21T09:44:37;101006.28;;;13.66
19568;BMP280;9930;49.240;8.548;2024-02-21T09:47:10;101004.91;;;13.75
19568;BMP280;9930;49.240;8.548;2024-02-21T09:49:40;101013.06;;;13.89
19568;BMP280;9930;49.240;8.548;2024-02-21T09:52:08;101008.19;;;13.97
19568;BMP280;9930;49.240;8.548;2024-02-21T09:54:35;100997.97;;;13.98
19568;BMP280;9930;49.240;8.548;2024-02-21T09:57:03;101000.81;;;14.06
19568;BMP280;9930;49.240;8.548;2024-02-21T09:59:32;101004.69;;;14.20
19568;BMP280;9930;49.240;8.548;2024-02-21T10:01:59;101000.56;;;14.25
19568;BMP280;9930;49.240;8.548;2024-02-21T10:04:29;100987.69;;;14.23
19568;BMP280;9930;49.240;8.548;2024-02-21T10:06:55;100990.56;;;14.33
19568;BMP280;9930;49.240;8.548;2024-02-21T10:09:25;100981.22;;;14.35
19568;BMP280;9930;49.240;8.548;2024-02-21T10:11:56;100980.47;;;14.39
19568;BMP280;9930;49.240;8.548;2024-02-21T10:14:22;100971.00;;;14.36
19568;BMP280;9930;49.240;8.548;2024-02-21T10:16:56;100961.69;;;14.40
19568;BMP280;9930;49.240;8.548;2024-02-21T10:19:21;100958.47;;;14.45
19568;BMP280;9930;49.240;8.548;2024-02-21T10:22:07;100959.44;;;14.49
19568;BMP280;9930;49.240;8.548;2024-02-21T10:24:34;100958.66;;;14.51
19568;BMP280;9930;49.240;8.548;2024-02-21T10:27:05;100958.06;;;14.60
19568;BMP280;9930;49.240;8.548;2024-02-21T10:29:37;100957.44;;;14.67
19568;BMP280;9930;49.240;8.548;2024-02-21T10:32:13;100935.00;;;14.62
19568;BMP280;9930;49.240;8.548;2024-02-21T10:34:41;100949.06;;;14.74
19568;BMP280;9930;49.240;8.548;2024-02-21T10:37:11;100947.56;;;14.81
19568;BMP280;9930;49.240;8.548;2024-02-21T10:39:40;100952.97;;;14.90
19568;BMP280;9930;49.240;8.548;2024-02-21T10:42:06;100932.31;;;14.87
19568;BMP280;9930;49.240;8.548;2024-02-21T10:44:37;100939.47;;;14.97
19568;BMP280;9930;49.240;8.548;2024-02-21T10:47:11;100924.00;;;14.96
19568;BMP280;9930;49.240;8.548;2024-02-21T10:49:41;100924.19;;;15.02
19568;BMP280;9930;49.240;8.548;2024-02-21T10:52:51;100921.81;;;15.09
19568;BMP280;9930;49.240;8.548;2024-02-21T10:55:49;100911.63;;;15.12
19568;BMP280;9930;49.240;8.548;2024-02-21T10:58:17;100900.41;;;15.09
19568;BMP280;9930;49.240;8.548;2024-02-21T11:00:44;100891.03;;;15.11
19568;BMP280;9930;49.240;8.548;2024-02-21T11:03:10;100889.31;;;15.11
19568;BMP280;9930;49.240;8.548;2024-02-21T11:05:37;100899.84;;;15.20
19568;BMP280;9930;49.240;8.548;2024-02-21T11:08:05;100893.09;;;15.24
19568;BMP280;9930;49.240;8.548;2024-02-21T11:10:31;100886.34;;;15.28
19568;BMP280;9930;49.240;8.548;2024-02-21T11:13:11;100885.59;;;15.32
19568;BMP280;9930;49.240;8.548;2024-02-21T11:15:37;100878.81;;;15.35
19568;BMP280;9930;49.240;8.548;2024-02-21T11:18:03;100884.16;;;15.43
19568;BMP280;9930;49.240;8.548;2024-02-21T11:20:34;100869.56;;;15.42
19568;BMP280;9930;49.240;8.548;2024-02-21T11:23:00;100875.81;;;15.51
19568;BMP280;9930;49.240;8.548;2024-02-21T11:25:27;100864.53;;;15.46
19568;BMP280;9930;49.240;8.548;2024-02-21T11:28:04;100865.63;;;15.56
19568;BMP280;9930;49.240;8.548;2024-02-21T11:30:31;100863.19;;;15.61
19568;BMP280;9930;49.240;8.548;2024-02-21T11:33:06;100853.84;;;15.64
19568;BMP280;9930;49.240;8.548;2024-02-21T11:35:33;100835.78;;;15.63
19568;BMP280;9930;49.240;8.548;2024-02-21T11:38:10;100838.50;;;15.69
19568;BMP280;9930;49.240;8.548;2024-02-21T11:40:39;100830.84;;;15.70
19568;BMP280;9930;49.240;8.548;2024-02-21T11:43:08;100829.16;;;15.72
19568;BMP280;9930;49.240;8.548;2024-02-21T11:45:33;100822.41;;;15.76
19568;BMP280;9930;49.240;8.548;2024-02-21T11:48:00;100806.88;;;15.73
19568;BMP280;9930;49.240;8.548;2024-02-21T11:50:29;100808.72;;;15.78
19568;BMP280;9930;49.240;8.548;2024-02-21T11:52:56;100798.38;;;15.75
19568;BMP280;9930;49.240;8.548;2024-02-21T11:55:23;100795.88;;;15.78
19568;BMP280;9930;49.240;8.548;2024-02-21T11:57:49;100789.88;;;15.78
19568;BMP280;9930;49.240;8.548;2024-02-21T12:00:19;100777.72;;;15.72
19568;BMP280;9930;49.240;8.548;2024-02-21T12:02:50;100777.78;;;15.74
19568;BMP280;9930;49.240;8.548;2024-02-21T12:05:19;100770.06;;;15.74
19568;BMP280;9930;49.240;8.548;2024-02-21T12:07:48;100783.94;;;15.82
19568;BMP280;9930;49.240;8.548;2024-02-21T12:10:17;100773.66;;;15.82
19568;BMP280;9930;49.240;8.548;2024-02-21T12:12:43;100753.84;;;15.78
19568;BMP280;9930;49.240;8.548;2024-02-21T12:15:09;100760.75;;;15.79
19568;BMP280;9930;49.240;8.548;2024-02-21T12:17:40;100759.16;;;15.85
19568;BMP280;9930;49.240;8.548;2024-02-21T12:20:06;100757.44;;;15.84
19568;BMP280;9930;49.240;8.548;2024-02-21T12:22:37;100744.53;;;15.83
19568;BMP280;9930;49.240;8.548;2024-02-21T12:25:04;100742.97;;;15.90
19568;BMP280;9930;49.240;8.548;2024-02-21T12:27:49;100733.53;;;15.90
19568;BMP280;9930;49.240;8.548;2024-02-21T12:30:18;100728.44;;;15.92
19568;BMP280;9930;49.240;8.548;2024-02-21T12:32:48;100712.97;;;15.90
19568;BMP280;9930;49.240;8.548;2024-02-21T12:35:14;100712.22;;;15.96
19568;BMP280;9930;49.240;8.548;2024-02-21T12:37:40;100711.41;;;15.98
19568;BMP280;9930;49.240;8.548;2024-02-21T12:40:08;100694.19;;;15.94
19568;BMP280;9930;49.240;8.548;2024-02-21T12:42:34;100690.06;;;16.02
19568;BMP280;9930;49.240;8.548;2024-02-21T12:45:02;100691.84;;;16.06
19568;BMP280;9930;49.240;8.548;2024-02-21T12:47:28;100685.88;;;16.07
19568;BMP280;9930;49.240;8.548;2024-02-21T12:49:54;100690.25;;;16.11
19568;BMP280;9930;49.240;8.548;2024-02-21T12:52:20;100683.38;;;16.12
19568;BMP280;9930;49.240;8.548;2024-02-21T12:54:48;100667.06;;;16.11
19568;BMP280;9930;49.240;8.548;2024-02-21T12:57:14;100670.63;;;16.18
19568;BMP280;9930;49.240;8.548;2024-02-21T12:59:40;100667.22;;;16.19
19568;BMP280;9930;49.240;8.548;2024-02-21T13:02:06;100664.69;;;16.20
19568;BMP280;9930;49.240;8.548;2024-02-21T13:04:32;100645.72;;;16.15
19568;BMP280;9930;49.240;8.548;2024-02-21T13:06:57;100647.56;;;16.23
19568;BMP280;9930;49.240;8.548;2024-02-21T13:09:23;100638.06;;;16.20
19568;BMP280;9930;49.240;8.548;2024-02-21T13:11:49;100603.59;;;16.10
19568;BMP280;9930;49.240;8.548;2024-02-21T13:14:19;100607.00;;;16.09
19568;BMP280;9930;49.240;8.548;2024-02-21T13:16:44;100613.88;;;16.10
19568;BMP280;9930;49.240;8.548;2024-02-21T13:19:11;100614.84;;;16.15
19568;BMP280;9930;49.240;8.548;2024-02-21T13:21:39;100609.69;;;16.15
19568;BMP280;9930;49.240;8.548;2024-02-21T13:24:05;100614.81;;;16.14
19568;BMP280;9930;49.240;8.548;2024-02-21T13:26:31;100600.16;;;16.10
19568;BMP280;9930;49.240;8.548;2024-02-21T13:28:57;100601.91;;;16.12
19568;BMP280;9930;49.240;8.548;2024-02-21T13:31:23;100599.38;;;16.14
19568;BMP280;9930;49.240;8.548;2024-02-21T13:33:50;100575.16;;;16.04
19568;BMP280;9930;49.240;8.548;2024-02-21T13:36:18;100589.97;;;16.16
19568;BMP280;9930;49.240;8.548;2024-02-21T13:38:44;100578.69;;;16.09
19568;BMP280;9930;49.240;8.548;2024-02-21T13:41:13;100571.78;;;16.07
19568;BMP280;9930;49.240;8.548;2024-02-21T13:43:38;100583.97;;;16.17
19568;BMP280;9930;49.240;8.548;2024-02-21T13:46:04;100566.72;;;16.11
19568;BMP280;9930;49.240;8.548;2024-02-21T13:48:35;100566.84;;;16.19
19568;BMP280;9930;49.240;8.548;2024-02-21T13:51:04;100555.72;;;16.20
19568;BMP280;9930;49.240;8.548;2024-02-21T13:53:30;100538.50;;;16.16
19568;BMP280;9930;49.240;8.548;2024-02-21T13:55:55;100545.44;;;16.22
19568;BMP280;9930;49.240;8.548;2024-02-21T13:58:21;100522.19;;;16.15
19568;BMP280;9930;49.240;8.548;2024-02-21T14:00:49;100542.06;;;16.24
19568;BMP280;9930;49.240;8.548;2024-02-21T14:03:14;100529.19;;;16.24
19568;BMP280;9930;49.240;8.548;2024-02-21T14:05:42;100518.06;;;16.25
19568;BMP280;9930;49.240;8.548;2024-02-21T14:08:08;100497.44;;;16.22
19568;BMP280;9930;49.240;8.548;2024-02-21T14:10:33;100511.22;;;16.26